Time;durP1;ratioP1;P1;durP2;ratioP2;P2;SDS_P1;SDS_P2;PMS_P1;PMS_P2;Temp;Humidity;BMP_temperature;BMP_pressure;BME280_temperature;BME280_humidity;BME280_pressure;Samples;Min_cycle;Max_cycle;Signal;HPM_P1;HPM_P2
2023/07/01 00:02:05;;;;;;;2.67;1.70;;;21.30;57.20;;;23.69;40.38;100641.00;4974727;28;20292;-57
2023/07/01 00:04:32;;;;;;;3.53;2.13;;;21.30;57.20;;;23.69;40.29;100647.19;4955783;28;20198;-62
2023/07/01 00:07:00;;;;;;;4.80;2.40;;;21.20;57.20;;;23.64;40.39;100639.09;4955829;29;20693;-60
2023/07/01 00:09:27;;;;;;;3.30;1.97;;;21.20;57.10;;;23.58;40.38;100640.94;4955126;29;20259;-59
2023/07/01 00:11:54;;;;;;;2.37;2.17;;;21.10;57.20;;;23.52;40.32;100628.56;4955533;28;20280;-59
2023/07/01 00:14:21;;;;;;;3.20;2.27;;;21.10;57.10;;;23.51;40.49;100629.63;4955140;28;20288;-59
2023/07/01 00:16:48;;;;;;;2.00;1.80;;;21.20;57.20;;;23.49;40.47;100629.09;4954994;28;20205;-58
2023/07/01 00:19:15;;;;;;;2.40;1.87;;;21.10;57.10;;;23.53;40.57;100622.09;4955065;28;20220;-61
2023/07/01 00:21:42;;;;;;;4.50;2.20;;;21.10;57.20;;;23.57;40.02;100622.41;4955316;28;20307;-58
2023/07/01 00:24:11;;;;;;;5.50;2.23;;;21.10;57.30;;;23.57;40.23;100619.72;4954092;29;20193;-60
2023/07/01 00:26:38;;;;;;;2.07;1.90;;;21.10;57.20;;;23.54;40.43;100613.00;4955167;28;20201;-60
2023/07/01 00:29:05;;;;;;;2.70;2.10;;;21.10;57.20;;;23.52;40.32;100614.31;4954974;28;20211;-60
2023/07/01 00:31:32;;;;;;;3.50;2.00;;;21.10;57.10;;;23.52;40.34;100617.00;4954943;29;20715;-60
2023/07/01 00:33:59;;;;;;;1.90;1.73;;;21.10;57.30;;;23.53;40.32;100615.94;4955164;28;20201;-61
2023/07/01 00:36:26;;;;;;;2.10;1.87;;;21.10;57.30;;;23.52;40.24;100608.94;4955117;28;20213;-57
2023/07/01 00:38:53;;;;;;;6.30;1.90;;;21.10;57.20;;;23.46;40.32;100604.63;4955150;28;20213;-60
2023/07/01 00:41:21;;;;;;;3.50;2.30;;;21.00;57.20;;;23.46;40.46;100604.63;4954930;28;20207;-59
2023/07/01 00:43:48;;;;;;;3.37;2.00;;;21.00;57.20;;;23.42;40.53;100598.16;4955287;28;20272;-59
2023/07/01 00:46:16;;;;;;;3.33;2.57;;;21.00;57.20;;;23.46;40.68;100604.63;4955060;28;20643;-61
2023/07/01 00:48:44;;;;;;;3.77;2.27;;;21.00;57.40;;;23.43;40.62;100595.22;4954869;28;20224;-60
2023/07/01 00:51:11;;;;;;;2.50;2.00;;;21.00;57.40;;;23.41;40.77;100588.50;4960211;28;20681;-59
2023/07/01 00:53:39;;;;;;;3.57;2.27;;;21.00;57.40;;;23.43;40.49;100589.03;4959184;28;20199;-58
2023/07/01 00:56:07;;;;;;;4.60;2.17;;;21.00;57.50;;;23.43;40.48;100584.47;4973688;28;20239;-59
2023/07/01 00:58:35;;;;;;;3.17;2.23;;;21.00;57.60;;;23.44;40.52;100588.75;4960782;28;20193;-59
2023/07/01 01:01:11;;;;;;;3.50;2.10;;;21.00;57.60;;;23.45;40.48;100576.13;4977848;28;20188;-58
2023/07/01 01:03:47;;;;;;;3.67;1.93;;;21.00;57.50;;;23.46;40.56;100567.78;4977980;28;20188;-59
2023/07/01 01:06:24;;;;;;;3.70;2.40;;;21.00;57.60;;;23.46;40.46;100569.69;4977964;28;20188;-59
2023/07/01 01:09:01;;;;;;;2.77;2.27;;;21.00;57.70;;;23.40;40.67;100570.75;4977451;28;20263;-58
2023/07/01 01:11:32;;;;;;;3.30;2.40;;;21.00;57.70;;;23.40;40.52;100568.06;4978099;28;20244;-60
2023/07/01 01:14:05;;;;;;;2.33;2.00;;;20.90;57.70;;;23.36;40.70;100558.91;4978015;28;20188;-60
2023/07/01 01:16:33;;;;;;;3.03;2.07;;;20.90;57.80;;;23.39;40.79;100551.13;4977662;28;20216;-58
2023/07/01 01:19:08;;;;;;;3.80;2.43;;;20.90;57.90;;;23.36;40.57;100556.22;4977738;28;20303;-58
2023/07/01 01:21:36;;;;;;;2.40;2.13;;;20.90;57.90;;;23.32;40.82;100553.22;4977627;28;20191;-59
2023/07/01 01:24:09;;;;;;;2.83;2.30;;;20.90;58.00;;;23.32;40.93;100552.41;4977231;28;20256;-60
2023/07/01 01:26:43;;;;;;;4.83;2.30;;;20.80;58.00;;;23.37;40.76;100539.00;4977451;28;20212;-58
2023/07/01 01:29:12;;;;;;;3.00;2.53;;;20.90;58.10;;;23.35;40.89;100539.28;4977089;28;20217;-59
2023/07/01 01:31:40;;;;;;;4.40;2.50;;;20.80;58.10;;;23.34;41.15;100536.84;4977545;28;20177;-58
2023/07/01 01:34:07;;;;;;;2.37;2.17;;;20.80;58.20;;;23.37;41.17;100536.31;4977664;28;20193;-59
2023/07/01 01:36:45;;;;;;;3.20;2.17;;;20.90;59.00;;;23.33;41.15;100529.84;4977178;28;20299;-59
2023/07/01 01:39:17;;;;;;;3.93;2.13;;;20.80;58.30;;;23.30;41.07;100520.44;4976901;28;20208;-59
2023/07/01 01:41:52;;;;;;;3.60;2.47;;;20.80;58.40;;;23.28;41.09;100527.13;4977589;28;20620;-59
2023/07/01 01:44:28;;;;;;;2.77;2.00;;;20.80;58.50;;;23.22;41.24;100522.81;4976951;28;20203;-60
2023/07/01 01:46:57;;;;;;;2.73;2.20;;;20.80;58.60;;;23.23;41.56;100525.25;4977048;28;20264;-57
2023/07/01 01:49:26;;;;;;;2.40;2.03;;;20.80;58.70;;;23.27;41.68;100520.16;4976773;28;20251;-57
2023/07/01 01:51:55;;;;;;;3.27;2.30;;;20.70;58.80;;;23.23;41.28;100519.88;4964148;28;20211;-57
2023/07/01 01:54:24;;;;;;;3.67;2.60;;;20.80;58.90;;;23.18;41.59;100516.34;4957524;28;20193;-59
2023/07/01 01:56:52;;;;;;;2.63;2.20;;;20.70;58.90;;;23.16;41.43;100518.50;4971767;28;20233;-59
2023/07/01 01:59:21;;;;;;;3.77;2.33;;;20.70;59.00;;;23.12;41.75;100512.03;4957405;29;20213;-58
2023/07/01 02:01:48;;;;;;;4.10;2.27;;;20.70;59.20;;;23.11;41.65;100505.03;4956118;28;20676;-58
2023/07/01 02:04:14;;;;;;;4.17;2.67;;;20.70;59.30;;;23.14;41.94;100505.34;4957674;28;20204;-61
2023/07/01 02:06:42;;;;;;;3.90;2.60;;;20.70;59.40;;;23.17;42.12;100507.50;4957450;29;20245;-61
2023/07/01 02:09:09;;;;;;;3.57;2.67;;;20.60;59.50;;;23.18;41.95;100502.91;4957363;28;20205;-64
2023/07/01 02:11:36;;;;;;;2.53;2.23;;;20.60;59.50;;;23.13;41.97;100503.69;4957578;29;20240;-58
2023/07/01 02:14:03;;;;;;;4.17;2.73;;;20.60;59.60;;;23.09;42.05;100507.19;4957464;29;20231;-62
2023/07/01 02:16:34;;;;;;;3.80;2.53;;;20.60;59.70;;;23.05;42.13;100495.34;4957808;28;20344;-57
2023/07/01 02:19:00;;;;;;;4.23;2.43;;;20.60;59.90;;;23.00;42.52;100481.91;4957220;29;20292;-60
2023/07/01 02:21:27;;;;;;;3.73;2.57;;;20.50;60.00;;;22.95;42.58;100489.94;4957499;28;20217;-59
2023/07/01 02:23:54;;;;;;;3.90;2.50;;;20.50;60.10;;;22.95;42.65;100479.19;4956905;29;20203;-61
2023/07/01 02:26:21;;;;;;;5.87;2.60;;;20.50;60.20;;;22.96;42.71;100481.63;4957015;29;20198;-60
2023/07/01 02:28:48;;;;;;;3.70;2.70;;;20.50;60.30;;;22.97;42.65;100471.69;4956653;28;20233;-59
2023/07/01 02:31:18;;;;;;;6.13;2.97;;;20.50;60.50;;;22.96;42.51;100470.09;4957291;28;20197;-60
2023/07/01 02:33:46;;;;;;;3.53;2.40;;;20.50;60.50;;;22.98;42.91;100467.94;4975498;28;20284;-59
2023/07/01 02:36:13;;;;;;;5.27;2.33;;;20.50;60.70;;;22.98;42.73;100463.38;4976432;28;20235;-58
2023/07/01 02:38:40;;;;;;;3.47;3.17;;;20.50;60.70;;;23.00;42.84;100455.06;4975736;28;20221;-60
2023/07/01 02:41:08;;;;;;;2.97;2.50;;;20.50;60.90;;;22.98;42.83;100457.19;4976218;28;20192;-60
2023/07/01 02:43:35;;;;;;;2.80;2.60;;;20.50;61.00;;;22.96;43.08;100453.97;4975572;28;20280;-60
2023/07/01 02:46:02;;;;;;;3.17;2.87;;;20.50;61.20;;;22.95;42.93;100452.34;4976489;28;20276;-59
2023/07/01 02:48:29;;;;;;;4.50;3.43;;;20.50;61.20;;;22.96;42.96;100445.91;4975912;28;20181;-59
2023/07/01 02:50:57;;;;;;;4.50;3.13;;;20.50;61.20;;;22.92;43.05;100441.06;4976145;28;20192;-58
2023/07/01 02:53:24;;;;;;;3.57;3.17;;;20.40;61.30;;;22.95;43.16;100441.59;4976125;28;20302;-59
2023/07/01 02:55:51;;;;;;;3.73;3.10;;;20.50;61.50;;;22.95;43.14;100446.97;4975791;28;20740;-58
2023/07/01 02:58:19;;;;;;;5.63;3.10;;;20.50;61.60;;;22.92;43.20;100443.75;4976049;28;20268;-60
2023/07/01 03:00:46;;;;;;;3.30;2.67;;;20.40;61.70;;;22.93;43.26;100436.50;4975531;28;20227;-58
2023/07/01 03:03:14;;;;;;;3.20;2.77;;;20.40;61.60;;;22.89;43.22;100433.53;4975560;28;20304;-57
2023/07/01 03:05:41;;;;;;;3.07;2.87;;;20.40;61.90;;;22.82;43.54;100424.91;4975827;28;20280;-58
2023/07/01 03:08:09;;;;;;;3.70;3.27;;;20.40;62.20;;;22.82;43.67;100427.59;4975870;28;20187;-58
2023/07/01 03:10:36;;;;;;;5.97;3.47;;;20.40;62.30;;;22.75;43.89;100421.66;4975442;28;20215;-60
2023/07/01 03:13:03;;;;;;;3.57;3.27;;;20.30;62.40;;;22.69;44.05;100417.34;4975517;28;20271;-58
2023/07/01 03:15:30;;;;;;;5.07;3.37;;;20.30;62.50;;;22.69;44.39;100412.00;4975617;28;20228;-60
2023/07/01 03:17:57;;;;;;;5.03;3.80;;;20.30;62.80;;;22.62;44.30;100411.41;4975534;28;20209;-58
2023/07/01 03:20:24;;;;;;;3.33;3.00;;;20.30;62.90;;;22.49;44.53;100413.75;4974909;28;20327;-59
2023/07/01 03:22:53;;;;;;;5.80;3.47;;;20.20;63.20;;;22.51;44.40;100404.34;4975968;28;20189;-59
2023/07/01 03:25:22;;;;;;;5.47;3.63;;;20.20;63.30;;;22.45;44.66;100407.25;4975982;28;20227;-60
2023/07/01 03:27:49;;;;;;;4.10;3.20;;;20.10;63.40;;;22.51;44.48;100401.66;4975600;28;20193;-60
2023/07/01 03:30:18;;;;;;;4.20;3.37;;;20.20;63.40;;;22.57;44.71;100403.31;4975009;28;20219;-59
2023/07/01 03:32:47;;;;;;;5.30;3.40;;;20.20;63.70;;;22.61;44.54;100401.75;4975070;28;20231;-60
2023/07/01 03:35:15;;;;;;;3.67;3.13;;;20.20;63.90;;;22.56;44.72;100393.63;4975052;28;20188;-55
2023/07/01 03:37:44;;;;;;;6.17;3.27;;;20.10;63.90;;;22.60;44.68;100389.38;4975102;28;20216;-59
2023/07/01 03:40:11;;;;;;;4.60;4.10;;;20.20;63.80;;;22.59;44.44;100385.06;4974645;28;20227;-60
2023/07/01 03:42:41;;;;;;;9.97;3.97;;;20.10;64.00;;;22.58;44.53;100388.81;4975129;28;20200;-59
2023/07/01 03:45:10;;;;;;;5.00;3.47;;;20.10;63.90;;;22.63;44.46;100385.41;4975052;28;20645;-59
2023/07/01 03:47:40;;;;;;;6.53;3.87;;;20.20;64.20;;;22.66;44.60;100382.97;4974886;28;20188;-59
2023/07/01 03:50:08;;;;;;;5.70;3.80;;;20.20;64.20;;;22.59;45.00;100385.06;4974388;28;20208;-58
2023/07/01 03:52:36;;;;;;;5.43;3.87;;;20.20;64.30;;;22.63;44.80;100386.19;4973769;28;20208;-60
2023/07/01 03:55:08;;;;;;;4.43;3.60;;;20.20;64.40;;;22.65;45.04;100378.69;4975036;28;20247;-58
2023/07/01 03:57:35;;;;;;;5.60;3.43;;;20.20;64.40;;;22.68;44.85;100377.34;4974541;28;20236;-58
2023/07/01 04:00:08;;;;;;;5.07;3.50;;;20.20;64.40;;;22.69;44.71;100369.06;4974513;28;20216;-60
2023/07/01 04:02:37;;;;;;;3.70;3.40;;;20.20;64.40;;;22.68;45.02;100370.09;4974928;28;20197;-60
2023/07/01 04:05:10;;;;;;;4.97;4.17;;;20.20;64.50;;;22.61;44.72;100372.22;4975073;28;20593;-59
2023/07/01 04:07:37;;;;;;;6.93;4.00;;;20.10;64.60;;;22.56;45.18;100364.13;4975019;28;20184;-62
2023/07/01 04:10:06;;;;;;;5.57;3.90;;;20.10;64.80;;;22.63;44.77;100369.31;4974265;28;20303;-61
2023/07/01 04:12:34;;;;;;;3.90;3.50;;;20.20;64.80;;;22.67;44.97;100365.00;4975077;28;20251;-60
2023/07/01 04:15:10;;;;;;;5.50;3.30;;;20.10;64.80;;;22.72;44.65;100368.53;4974708;28;20280;-59
2023/07/01 04:17:42;;;;;;;6.30;3.80;;;20.20;64.90;;;22.78;44.75;100367.47;4974782;28;20223;-59
2023/07/01 04:20:11;;;;;;;3.67;3.37;;;20.20;65.10;;;22.83;44.86;100359.44;4974585;28;20212;-61
2023/07/01 04:22:39;;;;;;;4.57;3.40;;;20.20;65.10;;;22.88;44.60;100362.13;4974802;28;20196;-61
2023/07/01 04:25:07;;;;;;;5.13;3.90;;;20.20;64.90;;;22.89;44.74;100350.31;4973820;28;20208;-59
2023/07/01 04:27:35;;;;;;;8.80;4.03;;;20.20;65.00;;;22.92;44.80;100361.63;4974618;28;20224;-59
2023/07/01 04:30:08;;;;;;;5.77;3.20;;;20.30;65.10;;;22.92;44.79;100349.78;4974051;28;20560;-60
2023/07/01 04:32:36;;;;;;;4.53;3.27;;;20.30;65.20;;;22.96;44.65;100355.44;4974529;28;20185;-59
2023/07/01 04:35:04;;;;;;;4.00;3.63;;;20.30;65.20;;;22.98;45.11;100345.25;4974393;28;20189;-59
2023/07/01 04:37:31;;;;;;;4.20;3.80;;;20.30;65.60;;;22.98;45.13;100344.44;4974774;28;20240;-59
2023/07/01 04:39:58;;;;;;;3.90;3.50;;;20.30;65.90;;;22.86;45.53;100332.06;4973903;28;20784;-59
2023/07/01 04:42:25;;;;;;;3.90;3.60;;;20.30;66.20;;;22.78;45.67;100323.69;4974494;28;20732;-60
2023/07/01 04:44:54;;;;;;;6.97;3.80;;;20.20;66.10;;;22.62;46.28;100324.75;4973938;28;20610;-60
2023/07/01 04:47:24;;;;;;;5.20;3.83;;;20.20;66.60;;;22.55;46.38;100324.16;4974460;28;20284;-58
2023/07/01 04:49:52;;;;;;;4.73;4.23;;;20.10;66.80;;;22.53;46.62;100313.69;4973824;28;20212;-58
2023/07/01 04:52:21;;;;;;;4.70;3.27;;;20.10;66.90;;;22.58;46.81;100312.91;4970540;28;20209;-59
2023/07/01 04:54:48;;;;;;;3.60;3.30;;;20.10;67.90;;;22.57;47.22;100312.09;4974035;28;20292;-56
2023/07/01 04:57:15;;;;;;;3.67;3.37;;;20.10;68.50;;;22.50;47.67;100311.53;4974116;28;20224;-59
2023/07/01 04:59:42;;;;;;;4.13;3.73;;;20.00;69.00;;;22.43;47.95;100305.59;4973768;28;20340;-57
2023/07/01 05:02:09;;;;;;;4.63;4.23;;;20.00;69.50;;;22.34;48.59;100301.81;4974601;28;20216;-60
2023/07/01 05:04:38;;;;;;;5.60;3.90;;;20.00;70.00;;;22.20;48.89;100301.47;4974129;28;20197;-60
2023/07/01 05:07:06;;;;;;;4.10;3.70;;;19.80;70.10;;;22.15;49.28;100303.34;4974189;28;20196;-60
2023/07/01 05:09:33;;;;;;;4.20;3.70;;;19.80;70.80;;;22.10;49.74;100306.81;4974054;28;20209;-61
2023/07/01 05:12:00;;;;;;;4.83;4.10;;;19.70;71.20;;;22.07;49.28;100290.41;4974622;28;20211;-58
2023/07/01 05:14:27;;;;;;;4.83;3.83;;;19.70;72.00;;;22.08;49.35;100292.03;4974986;28;20888;-58
2023/07/01 05:16:54;;;;;;;5.40;4.40;;;19.60;71.30;;;22.03;49.46;100294.69;4974849;28;20259;-58
2023/07/01 05:19:21;;;;;;;6.63;4.17;;;19.60;72.00;;;21.90;49.87;100289.78;4974893;28;20212;-60
2023/07/01 05:21:52;;;;;;;4.03;3.63;;;19.50;71.40;;;21.85;49.21;100289.75;4974742;28;20646;-59
2023/07/01 05:24:19;;;;;;;4.87;3.93;;;19.50;71.40;;;21.88;49.56;100286.56;4973879;28;20549;-59
2023/07/01 05:26:48;;;;;;;3.47;3.13;;;19.50;71.20;;;21.96;48.96;100278.84;4973668;28;20271;-59
2023/07/01 05:29:15;;;;;;;3.83;3.30;;;19.50;71.20;;;22.05;49.00;100276.47;4973834;28;20215;-59
2023/07/01 05:31:42;;;;;;;4.73;3.43;;;19.50;71.50;;;22.05;48.81;100269.25;4973811;28;20275;-60
2023/07/01 05:34:09;;;;;;;5.33;3.20;;;19.50;71.10;;;22.09;48.70;100283.72;4973993;28;20193;-59
2023/07/01 05:36:37;;;;;;;5.90;3.67;;;19.60;70.90;;;22.10;48.50;100279.19;4976119;28;20196;-59
2023/07/01 05:39:06;;;;;;;5.20;3.70;;;19.60;70.70;;;22.15;48.37;100292.63;4976835;28;20266;-61
2023/07/01 05:41:33;;;;;;;4.87;3.67;;;19.60;70.40;;;22.20;48.10;100284.59;4977590;28;20185;-59
2023/07/01 05:44:00;;;;;;;4.20;3.80;;;19.60;69.90;;;22.19;47.77;100277.59;4976997;28;20199;-62
2023/07/01 05:46:30;;;;;;;4.13;3.80;;;19.60;69.50;;;22.20;47.54;100265.81;4977324;28;20200;-60
2023/07/01 05:48:57;;;;;;;4.30;3.57;;;19.70;69.20;;;22.18;47.79;100267.94;4977075;28;20271;-58
2023/07/01 05:51:24;;;;;;;3.30;3.00;;;19.70;69.10;;;22.26;47.15;100267.44;4973382;28;20683;-59
2023/07/01 05:53:51;;;;;;;4.23;3.10;;;19.70;69.10;;;22.36;47.13;100261.31;4977583;28;20200;-59
2023/07/01 05:56:20;;;;;;;7.93;2.87;;;19.70;68.80;;;22.45;46.67;100263.22;4977392;28;20192;-59
2023/07/01 05:58:47;;;;;;;5.10;3.10;;;19.80;68.90;;;22.45;46.68;100260.53;4976506;28;20220;-61
2023/07/01 06:01:14;;;;;;;5.60;3.20;;;19.90;68.80;;;22.44;47.52;100242.81;4977160;28;20302;-61
2023/07/01 06:03:41;;;;;;;5.63;3.43;;;19.90;69.00;;;22.43;47.58;100243.91;4977281;28;20193;-60
2023/07/01 06:06:08;;;;;;;6.07;3.40;;;19.90;69.10;;;22.37;47.11;100238.78;4976970;28;20196;-60
2023/07/01 06:08:35;;;;;;;4.57;2.93;;;19.90;68.70;;;22.42;47.20;100236.91;4976462;28;20279;-60
2023/07/01 06:11:01;;;;;;;4.50;3.10;;;19.90;68.80;;;22.51;47.36;100234.53;4976678;28;20198;-60
2023/07/01 06:13:30;;;;;;;5.07;3.00;;;20.00;68.90;;;22.55;46.85;100231.06;4976837;28;20283;-61
2023/07/01 06:15:57;;;;;;;3.43;3.13;;;20.00;68.60;;;22.60;47.13;100236.44;4976745;28;20607;-58
2023/07/01 06:18:24;;;;;;;4.50;2.80;;;20.00;68.70;;;22.72;46.52;100234.34;4976886;28;20287;-59
2023/07/01 06:20:51;;;;;;;3.67;3.13;;;20.10;68.60;;;22.75;46.36;100244.53;4976939;28;20196;-60
2023/07/01 06:23:18;;;;;;;3.53;2.70;;;20.10;68.20;;;22.80;46.27;100244.53;4976834;28;20271;-61
2023/07/01 06:25:45;;;;;;;6.73;3.00;;;20.20;68.20;;;22.89;46.08;100242.94;4976210;28;20268;-57
2023/07/01 06:28:12;;;;;;;4.20;2.90;;;20.20;68.10;;;22.98;45.83;100239.72;4976616;28;20195;-61
2023/07/01 06:30:40;;;;;;;3.50;2.80;;;20.20;68.50;;;23.01;45.67;100241.88;4977073;28;20262;-61
2023/07/01 06:33:08;;;;;;;4.80;2.93;;;20.30;67.50;;;23.02;45.69;100243.47;4976613;28;20228;-60
2023/07/01 06:35:35;;;;;;;3.83;2.93;;;20.30;67.60;;;23.08;45.81;100237.03;4976857;28;20254;-61
2023/07/01 06:38:03;;;;;;;3.70;2.83;;;20.40;67.80;;;23.08;45.67;100237.03;4976032;28;20212;-60
2023/07/01 06:40:30;;;;;;;11.90;3.37;;;20.40;68.00;;;23.15;45.97;100221.47;4976066;28;20626;-59
2023/07/01 06:42:57;;;;;;;4.37;3.33;;;20.40;68.30;;;23.18;46.02;100231.66;4976003;28;20224;-59
2023/07/01 06:45:24;;;;;;;3.53;3.10;;;20.40;68.40;;;23.14;46.26;100230.56;4976533;28;20204;-61
2023/07/01 06:47:52;;;;;;;6.03;3.20;;;20.40;68.60;;;23.15;46.25;100230.34;4975359;28;20200;-61
2023/07/01 06:50:19;;;;;;;4.23;3.43;;;20.50;68.70;;;23.11;46.49;100225.75;4975522;28;20224;-60
2023/07/01 06:52:46;;;;;;;6.80;3.47;;;20.50;68.80;;;23.13;46.69;100212.88;4956297;28;20208;-59
2023/07/01 06:55:14;;;;;;;3.67;2.90;;;20.50;68.70;;;23.16;46.52;100223.06;4956632;28;20244;-59
2023/07/01 06:57:42;;;;;;;4.03;2.90;;;20.50;68.80;;;23.16;46.49;100213.13;4956370;28;20284;-59
2023/07/01 07:00:12;;;;;;;4.03;3.20;;;20.50;68.80;;;23.17;46.38;100213.94;4956319;29;20681;-58
2023/07/01 07:02:40;;;;;;;4.97;3.30;;;20.50;68.70;;;23.20;46.36;100214.19;4956616;28;20248;-56
2023/07/01 07:05:08;;;;;;;7.73;3.10;;;20.50;68.70;;;23.20;46.58;100218.78;4956605;28;20189;-58
2023/07/01 07:07:36;;;;;;;4.70;3.40;;;20.50;68.80;;;23.20;46.50;100208.81;4956272;28;20201;-58
2023/07/01 07:10:03;;;;;;;3.70;3.17;;;20.50;68.80;;;23.23;46.53;100212.84;4956194;28;20220;-61
2023/07/01 07:12:30;;;;;;;4.97;3.30;;;20.60;69.10;;;23.26;46.65;100206.94;4956638;28;20201;-59
2023/07/01 07:14:57;;;;;;;3.30;3.00;;;20.60;69.00;;;23.28;46.65;100194.03;4974361;28;20203;-57
2023/07/01 07:17:24;;;;;;;4.67;2.90;;;20.60;69.10;;;23.18;47.47;100210.16;4975426;28;20220;-59
2023/07/01 07:19:52;;;;;;;3.67;3.13;;;20.60;69.70;;;23.16;47.92;100206.94;4975306;28;20279;-57
2023/07/01 07:22:20;;;;;;;3.13;2.43;;;20.60;70.40;;;23.12;48.25;100205.88;4975095;28;20210;-60
2023/07/01 07:24:47;;;;;;;3.50;3.20;;;20.60;71.00;;;23.14;48.44;100204.53;4975355;28;20279;-59
2023/07/01 07:27:14;;;;;;;3.67;2.83;;;20.60;71.60;;;23.17;48.45;100201.31;4975670;28;20192;-60
2023/07/01 07:29:41;;;;;;;4.43;2.70;;;20.60;71.70;;;23.27;48.54;100203.19;4974883;28;20267;-60
2023/07/01 07:32:08;;;;;;;4.77;3.90;;;20.60;71.90;;;23.21;48.97;100188.13;4975373;28;20276;-60
2023/07/01 07:34:38;;;;;;;3.30;3.00;;;20.60;72.70;;;23.23;48.78;100191.34;4956089;28;20669;-60
2023/07/01 07:37:05;;;;;;;3.37;3.07;;;20.60;72.70;;;23.30;48.86;100189.19;4955952;28;20201;-61
2023/07/01 07:39:34;;;;;;;4.13;3.13;;;20.60;72.70;;;23.40;48.75;100189.22;4954803;28;20225;-59
2023/07/01 07:42:01;;;;;;;4.10;3.10;;;20.60;72.80;;;23.40;49.14;100187.34;4955839;28;20650;-59
2023/07/01 07:44:28;;;;;;;3.60;3.30;;;20.60;73.40;;;23.28;49.32;100199.41;4955418;28;20674;-60
2023/07/01 07:46:56;;;;;;;4.77;3.20;;;20.60;73.30;;;23.17;49.51;100193.25;4955645;28;20201;-60
2023/07/01 07:49:22;;;;;;;3.57;3.27;;;20.60;73.20;;;23.17;49.77;100197.81;4955189;28;20209;-59
2023/07/01 07:51:50;;;;;;;6.63;3.17;;;20.60;73.40;;;23.14;50.09;100203.72;4969042;28;20201;-58
2023/07/01 07:54:17;;;;;;;3.33;3.03;;;20.60;73.90;;;23.08;50.66;100207.50;4974742;28;20279;-60
2023/07/01 07:56:45;;;;;;;2.90;2.60;;;20.60;74.70;;;23.09;50.53;100207.22;4974796;28;20250;-61
2023/07/01 07:59:12;;;;;;;6.20;3.87;;;20.60;74.60;;;22.92;51.89;100212.06;4974087;28;20254;-59
2023/07/01 08:01:39;;;;;;;5.10;3.33;;;20.50;76.40;;;22.86;52.33;100203.22;4973982;28;20727;-60
2023/07/01 08:04:06;;;;;;;4.30;3.40;;;20.50;76.40;;;22.85;52.06;100212.31;4974593;28;20198;-59
2023/07/01 08:06:33;;;;;;;3.77;3.20;;;20.50;76.40;;;22.94;51.85;100207.22;4974964;28;20192;-60
2023/07/01 08:09:00;;;;;;;5.10;3.60;;;20.40;76.60;;;23.06;51.73;100209.66;4973843;28;20277;-60
2023/07/01 08:11:27;;;;;;;5.63;4.00;;;20.40;77.00;;;23.11;52.00;100209.63;4974454;28;20220;-58
2023/07/01 08:13:55;;;;;;;4.17;3.60;;;20.40;77.90;;;23.08;52.74;100200.25;4975296;28;20202;-60
2023/07/01 08:16:22;;;;;;;4.90;3.70;;;20.40;78.40;;;22.95;52.99;100208.03;4974191;28;20283;-61
2023/07/01 08:18:49;;;;;;;5.97;4.60;;;20.40;78.80;;;23.02;52.71;100206.69;4973537;28;20590;-59
2023/07/01 08:21:16;;;;;;;4.60;4.20;;;20.40;78.50;;;23.06;53.29;100204.28;4974747;28;20207;-61
2023/07/01 08:23:43;;;;;;;5.40;3.70;;;20.40;79.50;;;23.09;53.09;100201.03;4974167;28;20196;-58
2023/07/01 08:26:10;;;;;;;5.83;3.63;;;20.40;79.60;;;23.07;53.38;100193.25;4974589;28;20228;-60
2023/07/01 08:28:37;;;;;;;4.20;3.53;;;20.40;80.00;;;23.08;53.19;100194.88;4974045;28;20199;-60
2023/07/01 08:31:06;;;;;;;3.40;3.10;;;20.40;79.70;;;23.13;53.62;100197.53;4974321;28;20279;-60
2023/07/01 08:33:33;;;;;;;4.93;4.20;;;20.40;80.50;;;23.15;53.69;100194.59;4974160;28;20243;-61
2023/07/01 08:36:00;;;;;;;5.93;4.10;;;20.40;80.60;;;22.82;55.98;100202.13;4974448;28;20254;-58
2023/07/01 08:38:30;;;;;;;4.87;3.90;;;20.30;82.90;;;22.48;57.06;100203.69;4973774;28;20570;-59
2023/07/01 08:41:03;;;;;;;5.30;4.80;;;20.20;83.30;;;22.31;57.76;100197.72;4974481;28;20291;-58
2023/07/01 08:43:33;;;;;;;5.30;4.00;;;20.10;83.90;;;22.21;57.93;100193.16;4973391;28;20608;-63
2023/07/01 08:46:05;;;;;;;5.43;3.90;;;20.00;84.10;;;22.17;58.11;100196.63;4974834;28;20208;-60
2023/07/01 08:48:34;;;;;;;4.83;4.43;;;20.00;84.30;;;22.20;58.52;100190.75;4973921;28;20274;-59
2023/07/01 08:51:10;;;;;;;6.13;4.53;;;19.90;85.30;;;22.25;58.35;100188.03;4968040;28;20197;-59
2023/07/01 08:53:41;;;;;;;5.20;4.67;;;19.90;86.20;;;22.30;58.31;100196.09;4954876;28;20216;-59
2023/07/01 08:56:09;;;;;;;6.67;4.10;;;19.90;86.10;;;22.36;58.91;100187.03;4954937;28;20193;-59
2023/07/01 08:58:37;;;;;;;8.30;4.37;;;19.90;86.50;;;22.33;59.07;100184.84;4954557;28;20228;-60
2023/07/01 09:01:05;;;;;;;5.13;4.47;;;19.90;86.60;;;22.34;59.08;100189.16;4955253;28;20249;-59
2023/07/01 09:03:36;;;;;;;5.47;4.23;;;20.00;86.60;;;22.43;58.21;100187.56;4965408;28;20223;-59
2023/07/01 09:06:05;;;;;;;5.23;4.40;;;20.00;86.10;;;22.45;57.95;100188.09;4973690;28;20650;-61
2023/07/01 09:08:33;;;;;;;5.73;3.87;;;20.00;86.10;;;22.37;58.48;100190.50;4973764;28;20213;-59
2023/07/01 09:11:00;;;;;;;5.17;3.97;;;20.00;86.30;;;22.46;58.46;100191.59;4975085;28;20750;-60
2023/07/01 09:13:27;;;;;;;5.37;4.10;;;20.00;86.30;;;22.49;58.51;100191.84;4978565;28;20204;-60
2023/07/01 09:15:54;;;;;;;4.60;4.20;;;20.00;86.80;;;22.30;59.52;100182.69;4977944;28;20703;-59
2023/07/01 09:18:24;;;;;;;5.80;4.13;;;19.90;87.90;;;22.25;59.78;100188.03;4977760;28;20269;-61
2023/07/01 09:20:53;;;;;;;4.50;4.10;;;19.90;88.00;;;22.17;60.24;100177.84;4977449;28;20220;-59
2023/07/01 09:23:28;;;;;;;5.20;4.00;;;19.90;88.70;;;22.04;60.77;100183.69;4977758;28;20204;-60
2023/07/01 09:26:13;;;;;;;4.27;3.60;;;19.80;89.00;;;21.86;61.43;100186.84;4977719;28;20196;-58
2023/07/01 09:28:43;;;;;;;4.43;4.03;;;19.70;89.90;;;21.82;61.82;100180.38;4976809;28;20336;-59
2023/07/01 09:31:14;;;;;;;6.30;4.60;;;19.60;90.20;;;21.76;62.19;100181.41;4977586;28;20219;-59
2023/07/01 09:33:59;;;;;;;4.70;4.03;;;19.50;90.40;;;21.65;62.78;100174.41;4977300;28;20231;-63
2023/07/01 09:36:30;;;;;;;5.43;4.40;;;19.50;90.70;;;21.62;63.21;100175.72;4977570;28;20296;-61
2023/07/01 09:38:57;;;;;;;4.73;4.20;;;19.40;91.00;;;21.66;63.72;100173.31;4977014;28;20275;-62
2023/07/01 09:41:26;;;;;;;4.50;3.70;;;19.40;91.10;;;21.62;63.56;100175.72;4977432;28;20196;-59
2023/07/01 09:43:56;;;;;;;7.97;4.53;;;19.30;91.10;;;21.65;63.58;100167.19;4976476;28;20239;-59
2023/07/01 09:46:26;;;;;;;5.43;4.43;;;19.30;91.40;;;21.69;63.95;100167.44;4977302;28;20653;-61
2023/07/01 09:48:55;;;;;;;5.80;3.87;;;19.30;92.00;;;21.66;63.81;100166.09;4976703;28;20268;-60
2023/07/01 09:51:27;;;;;;;5.17;4.37;;;19.30;91.90;;;21.61;64.35;100162.63;4968573;28;20630;-61
2023/07/01 09:53:54;;;;;;;7.00;4.73;;;19.30;92.30;;;21.57;64.32;100173.03;4958130;28;20181;-55
2023/07/01 09:56:21;;;;;;;5.47;4.27;;;19.30;92.20;;;21.54;65.25;100166.31;4958383;28;20212;-60
2023/07/01 09:58:50;;;;;;;6.13;4.73;;;19.20;92.30;;;21.51;64.74;100174.88;4959467;28;20224;-59
2023/07/01 10:01:18;;;;;;;5.77;4.20;;;19.20;92.30;;;21.50;65.02;100173.25;4977151;28;20251;-60
2023/07/01 10:03:45;;;;;;;5.13;4.63;;;19.20;92.50;;;21.46;65.65;100166.81;4976967;28;20674;-59
2023/07/01 10:06:14;;;;;;;7.27;4.90;;;19.20;92.60;;;21.45;65.62;100170.56;4976664;28;20288;-58
2023/07/01 10:08:43;;;;;;;4.20;3.90;;;19.20;92.70;;;21.53;65.59;100170.06;4976788;28;20276;-59
2023/07/01 10:11:18;;;;;;;4.90;4.50;;;19.20;92.70;;;21.55;65.69;100162.59;4976580;28;20220;-60
2023/07/01 10:13:51;;;;;;;4.87;4.53;;;19.20;92.80;;;21.52;65.39;100160.41;4977099;28;20211;-60
2023/07/01 10:16:19;;;;;;;4.83;3.90;;;19.20;92.90;;;21.51;65.77;100164.16;4976464;28;20228;-60
2023/07/01 10:18:47;;;;;;;4.10;3.67;;;19.20;93.20;;;21.59;65.57;100157.50;4976101;28;20268;-60